createdAt,value
2019-04-30T00:00:07.199Z,2.50
2019-04-30T00:02:39.841Z,2.80
2019-04-30T00:05:09.987Z,2.62
2019-04-30T00:07:38.257Z,2.40
2019-04-30T00:10:08.224Z,2.62
2019-04-30T00:12:39.471Z,2.70
2019-04-30T00:15:11.009Z,2.75
2019-04-30T00:17:38.039Z,2.50
2019-04-30T00:20:06.787Z,3.08
2019-04-30T00:22:39.232Z,2.80
2019-04-30T00:25:07.485Z,2.67
2019-04-30T00:27:36.137Z,2.92
2019-04-30T00:30:09.031Z,2.65
2019-04-30T00:32:43.436Z,3.22
2019-04-30T00:35:11.911Z,2.67
2019-04-30T00:37:39.144Z,3.12
2019-04-30T00:40:08.397Z,2.98
2019-04-30T00:42:37.058Z,3.00
2019-04-30T00:45:09.879Z,3.08
2019-04-30T00:47:39.476Z,2.85
2019-04-30T00:50:09.601Z,2.83
2019-04-30T00:52:38.327Z,2.58
2019-04-30T00:55:09.130Z,2.62
2019-04-30T00:57:43.577Z,2.87
2019-04-30T01:00:11.501Z,2.62
2019-04-30T01:02:40.094Z,2.45
2019-04-30T01:05:09.215Z,2.60
2019-04-30T01:07:39.550Z,2.75
2019-04-30T01:10:08.362Z,2.80
2019-04-30T01:12:44.260Z,2.90
2019-04-30T01:15:11.161Z,2.60
2019-04-30T01:17:40.653Z,3.25
2019-04-30T01:20:09.685Z,2.65
2019-04-30T01:22:38.891Z,2.42
2019-04-30T01:25:13.308Z,2.85
2019-04-30T01:27:45.471Z,3.33
2019-04-30T01:30:13.360Z,2.70
2019-04-30T01:32:40.271Z,2.80
2019-04-30T01:35:09.067Z,2.77
2019-04-30T01:37:38.720Z,2.67
2019-04-30T01:40:13.676Z,2.62
2019-04-30T01:42:42.787Z,2.77
2019-04-30T01:45:09.187Z,2.77
2019-04-30T01:47:39.609Z,2.45
2019-04-30T01:50:09.234Z,2.87
2019-04-30T01:52:38.827Z,2.50
2019-04-30T01:55:08.513Z,2.72
2019-04-30T01:57:38.974Z,2.33
2019-04-30T02:00:09.645Z,2.47
2019-04-30T02:02:39.435Z,2.83
2019-04-30T02:05:08.943Z,2.65
2019-04-30T02:07:38.796Z,2.52
2019-04-30T02:10:08.840Z,2.55
2019-04-30T02:12:39.184Z,3.10
2019-04-30T02:15:09.505Z,2.27
2019-04-30T02:17:38.795Z,2.70
2019-04-30T02:20:08.892Z,2.72
2019-04-30T02:22:39.004Z,2.70
2019-04-30T02:25:09.671Z,2.80
2019-04-30T02:27:39.032Z,2.70
2019-04-30T02:30:11.140Z,2.87
2019-04-30T02:32:40.310Z,2.70
2019-04-30T02:35:09.748Z,2.58
2019-04-30T02:37:39.940Z,2.58
2019-04-30T02:40:10.105Z,2.77
2019-04-30T02:42:39.844Z,2.30
2019-04-30T02:45:10.373Z,2.45
2019-04-30T02:47:39.987Z,2.92
2019-04-30T02:50:15.244Z,2.60
2019-04-30T02:52:40.699Z,2.80
2019-04-30T02:55:14.042Z,2.58
2019-04-30T02:57:42.651Z,2.47
2019-04-30T03:00:11.723Z,2.55
2019-04-30T03:02:40.407Z,2.22
2019-04-30T03:05:12.889Z,2.47
2019-04-30T03:07:40.699Z,2.80
2019-04-30T03:10:10.363Z,2.33
2019-04-30T03:12:40.430Z,2.52
2019-04-30T03:15:10.270Z,2.35
2019-04-30T03:17:39.417Z,2.30
2019-04-30T03:20:10.645Z,2.45
2019-04-30T03:22:39.911Z,2.47
2019-04-30T03:25:09.512Z,2.50
2019-04-30T03:27:42.200Z,2.55
2019-04-30T03:30:11.818Z,2.22
2019-04-30T03:32:43.153Z,2.25
2019-04-30T03:35:12.890Z,2.58
2019-04-30T03:37:39.940Z,2.70
2019-04-30T03:40:12.717Z,2.50
2019-04-30T03:42:39.736Z,2.80
2019-04-30T03:45:10.139Z,2.58
2019-04-30T03:47:42.844Z,2.50
2019-04-30T03:50:09.881Z,2.45
2019-04-30T03:52:39.473Z,2.55
2019-04-30T03:55:09.264Z,2.62
2019-04-30T03:57:39.859Z,2.45
2019-04-30T04:00:09.510Z,2.40
2019-04-30T04:02:40.520Z,2.60
2019-04-30T04:05:10.237Z,2.17
2019-04-30T04:07:39.531Z,2.47
2019-04-30T04:10:10.069Z,2.67
2019-04-30T04:12:39.534Z,2.85
2019-04-30T04:15:10.548Z,2.20
2019-04-30T04:17:39.867Z,2.80
2019-04-30T04:20:10.705Z,2.70
2019-04-30T04:22:40.366Z,2.75
2019-04-30T04:25:10.100Z,2.60
2019-04-30T04:27:39.812Z,2.40
2019-04-30T04:30:10.704Z,2.60
2019-04-30T04:32:40.686Z,2.60
2019-04-30T04:35:12.714Z,2.55
2019-04-30T04:37:40.607Z,3.22
2019-04-30T04:40:10.243Z,3.45
2019-04-30T04:42:39.538Z,3.35
2019-04-30T04:45:09.976Z,3.20
2019-04-30T04:47:40.184Z,3.33
2019-04-30T04:50:10.514Z,3.10
2019-04-30T04:52:39.732Z,3.47
2019-04-30T04:55:10.015Z,2.77
2019-04-30T04:57:40.017Z,2.72
2019-04-30T05:00:10.608Z,2.85
2019-04-30T05:02:39.778Z,2.60
2019-04-30T05:05:09.697Z,2.67
2019-04-30T05:07:39.879Z,2.60
2019-04-30T05:10:09.929Z,2.55
2019-04-30T05:12:39.829Z,2.70
2019-04-30T05:15:09.534Z,2.65
2019-04-30T05:17:39.812Z,2.65
2019-04-30T05:20:10.005Z,2.83
2019-04-30T05:22:39.128Z,2.17
2019-04-30T05:25:08.953Z,2.75
2019-04-30T05:27:39.259Z,2.85
2019-04-30T05:30:11.765Z,2.77
2019-04-30T05:32:39.541Z,2.45
2019-04-30T05:35:09.558Z,2.30
2019-04-30T05:37:38.627Z,2.42
2019-04-30T05:40:09.224Z,2.50
2019-04-30T05:42:38.777Z,2.40
2019-04-30T05:45:09.290Z,2.90
2019-04-30T05:47:38.856Z,2.33
2019-04-30T05:50:08.988Z,2.35
2019-04-30T05:52:39.746Z,2.40
2019-04-30T05:55:09.009Z,2.40
2019-04-30T05:57:43.310Z,2.50
2019-04-30T06:00:10.023Z,2.02
2019-04-30T06:02:39.894Z,2.77
2019-04-30T06:05:09.282Z,2.10
2019-04-30T06:07:39.529Z,2.25
2019-04-30T06:10:09.289Z,2.55
2019-04-30T06:12:39.240Z,2.40
2019-04-30T06:15:09.057Z,2.50
2019-04-30T06:17:39.224Z,2.50
2019-04-30T06:20:17.848Z,2.58
2019-04-30T06:22:39.705Z,2.15
2019-04-30T06:25:10.821Z,2.22
2019-04-30T06:27:38.985Z,2.40
2019-04-30T06:30:11.832Z,2.20
2019-04-30T06:32:39.565Z,2.30
2019-04-30T06:35:09.735Z,2.12
2019-04-30T06:37:39.072Z,2.50
2019-04-30T06:40:09.435Z,2.40
2019-04-30T06:42:39.416Z,1.95
2019-04-30T06:45:09.616Z,2.15
2019-04-30T06:47:39.064Z,2.17
2019-04-30T06:50:09.687Z,2.30
2019-04-30T06:52:39.017Z,2.70
2019-04-30T06:55:09.387Z,2.02
2019-04-30T06:57:38.499Z,1.95
2019-04-30T07:00:09.829Z,2.10
2019-04-30T07:02:39.315Z,1.87
2019-04-30T07:05:10.176Z,2.27
2019-04-30T07:07:41.566Z,2.27
2019-04-30T07:10:16.690Z,2.37
2019-04-30T07:12:40.067Z,2.17
2019-04-30T07:15:09.164Z,2.37
2019-04-30T07:17:40.559Z,2.50
2019-04-30T07:20:10.344Z,2.15
2019-04-30T07:22:45.191Z,2.20
2019-04-30T07:25:09.605Z,2.20
2019-04-30T07:27:40.139Z,2.40
2019-04-30T07:30:10.036Z,2.67
2019-04-30T07:32:38.956Z,2.35
2019-04-30T07:35:09.519Z,2.17
2019-04-30T07:37:39.306Z,2.30
2019-04-30T07:40:09.852Z,2.15
2019-04-30T07:42:44.706Z,2.10
2019-04-30T07:45:09.667Z,2.40
2019-04-30T07:47:39.583Z,2.10
2019-04-30T07:50:10.624Z,2.15
2019-04-30T07:52:57.977Z,2.20
2019-04-30T07:55:10.135Z,2.42
2019-04-30T07:57:40.444Z,2.40
2019-04-30T08:00:09.780Z,2.37
2019-04-30T08:02:43.075Z,2.35
2019-04-30T08:05:10.489Z,2.37
2019-04-30T08:07:39.515Z,2.15
2019-04-30T08:10:09.029Z,2.00
2019-04-30T08:12:41.837Z,2.08
2019-04-30T08:15:09.626Z,2.15
2019-04-30T08:17:38.907Z,2.30
2019-04-30T08:20:08.733Z,2.30
2019-04-30T08:22:40.843Z,2.42
2019-04-30T08:25:09.739Z,1.98
2019-04-30T08:27:39.298Z,2.42
2019-04-30T08:30:22.894Z,2.22
2019-04-30T08:32:39.521Z,2.60
2019-04-30T08:35:09.870Z,2.47
2019-04-30T08:37:38.742Z,2.30
2019-04-30T08:40:08.712Z,2.45
2019-04-30T08:42:39.779Z,2.10
2019-04-30T08:45:09.547Z,2.58
2019-04-30T08:47:39.221Z,2.33
2019-04-30T08:50:09.762Z,2.58
2019-04-30T08:52:39.435Z,2.27
2019-04-30T08:55:16.061Z,2.20
2019-04-30T08:57:39.555Z,2.27
2019-04-30T09:00:09.528Z,2.30
2019-04-30T09:02:39.351Z,2.02
2019-04-30T09:05:09.487Z,2.20
2019-04-30T09:07:38.684Z,2.02
2019-04-30T09:10:09.486Z,2.72
2019-04-30T09:12:39.886Z,2.33
2019-04-30T09:15:09.207Z,2.40
2019-04-30T09:17:38.582Z,3.00
2019-04-30T09:20:09.138Z,2.30
2019-04-30T09:22:39.355Z,2.47
2019-04-30T09:25:09.303Z,2.45
2019-04-30T09:27:39.791Z,2.55
2019-04-30T09:30:10.394Z,2.42
2019-04-30T09:32:39.159Z,2.10
2019-04-30T09:35:09.576Z,2.45
2019-04-30T09:37:39.419Z,2.37
2019-04-30T09:40:17.690Z,2.50
2019-04-30T09:42:39.942Z,2.40
2019-04-30T09:45:09.762Z,2.52
2019-04-30T09:47:41.840Z,2.50
2019-04-30T09:50:09.210Z,2.25
2019-04-30T09:52:39.638Z,2.50
2019-04-30T09:55:09.623Z,2.42
2019-04-30T09:57:39.055Z,2.58
2019-04-30T10:00:11.050Z,2.33
2019-04-30T10:02:39.826Z,2.70
2019-04-30T10:05:09.750Z,2.60
2019-04-30T10:07:39.412Z,2.47
2019-04-30T10:10:11.410Z,2.40
2019-04-30T10:12:40.274Z,2.45
2019-04-30T10:15:09.440Z,2.55
2019-04-30T10:17:38.052Z,2.55
2019-04-30T10:20:10.193Z,2.77
2019-04-30T10:22:40.078Z,2.55
2019-04-30T10:25:09.576Z,2.27
2019-04-30T10:27:38.773Z,2.58
2019-04-30T10:30:09.592Z,2.47
2019-04-30T10:32:38.314Z,2.40
2019-04-30T10:35:07.896Z,2.60
2019-04-30T10:37:38.617Z,2.77
2019-04-30T10:40:10.601Z,2.47
2019-04-30T10:42:39.391Z,2.45
2019-04-30T10:45:09.960Z,2.15
2019-04-30T10:47:39.436Z,3.02
2019-04-30T10:50:09.951Z,3.00
2019-04-30T10:52:39.298Z,3.02
2019-04-30T10:55:09.343Z,3.00
2019-04-30T10:57:39.644Z,2.90
2019-04-30T11:00:15.026Z,2.72
2019-04-30T11:02:43.989Z,2.87
2019-04-30T11:05:13.600Z,2.95
2019-04-30T11:07:42.293Z,2.62
2019-04-30T11:10:11.644Z,2.70
2019-04-30T11:12:40.312Z,2.80
2019-04-30T11:15:09.975Z,2.70
2019-04-30T11:17:39.707Z,2.90
2019-04-30T11:20:10.266Z,3.00
2019-04-30T11:22:39.554Z,2.92
2019-04-30T11:25:10.066Z,2.90
2019-04-30T11:27:40.855Z,2.75
2019-04-30T11:30:20.394Z,2.80
2019-04-30T11:32:40.671Z,2.83
2019-04-30T11:35:09.664Z,2.60
2019-04-30T11:37:38.337Z,2.98
2019-04-30T11:40:09.959Z,3.20
2019-04-30T11:42:38.572Z,3.50
2019-04-30T11:45:10.137Z,3.00
2019-04-30T11:47:38.751Z,3.20
2019-04-30T11:50:11.518Z,3.05
2019-04-30T11:52:40.123Z,3.37
2019-04-30T11:55:10.696Z,3.20
2019-04-30T11:57:39.839Z,3.20
2019-04-30T12:00:12.853Z,3.62
2019-04-30T12:02:41.517Z,3.17
2019-04-30T12:05:11.685Z,3.40
2019-04-30T12:07:40.296Z,3.00
2019-04-30T12:10:09.578Z,3.52
2019-04-30T12:12:38.813Z,3.98
2019-04-30T12:15:09.306Z,3.42
2019-04-30T12:17:38.027Z,3.60
2019-04-30T12:20:08.692Z,3.83
2019-04-30T12:22:39.595Z,3.70
2019-04-30T12:25:10.049Z,3.77
2019-04-30T12:27:38.721Z,3.92
2019-04-30T12:30:09.084Z,3.72
2019-04-30T12:32:39.263Z,4.03
2019-04-30T12:35:08.625Z,3.65
2019-04-30T12:37:39.102Z,3.70
2019-04-30T12:40:10.807Z,3.67
2019-04-30T12:42:39.016Z,3.62
2019-04-30T12:45:10.133Z,3.70
2019-04-30T12:47:38.790Z,3.33
2019-04-30T12:50:09.609Z,3.67
2019-04-30T12:52:39.507Z,3.70
2019-04-30T12:55:15.180Z,3.37
2019-04-30T12:57:39.435Z,3.33
2019-04-30T13:00:11.289Z,3.42
2019-04-30T13:02:39.953Z,3.40
2019-04-30T13:05:09.425Z,3.37
2019-04-30T13:07:40.132Z,3.22
2019-04-30T13:10:09.582Z,3.42
2019-04-30T13:12:39.280Z,3.40
2019-04-30T13:15:10.045Z,3.65
2019-04-30T13:17:38.697Z,3.08
2019-04-30T13:20:18.222Z,3.12
2019-04-30T13:22:38.874Z,3.58
2019-04-30T13:25:09.289Z,3.25
2019-04-30T13:27:38.181Z,2.85
2019-04-30T13:30:08.096Z,3.12
2019-04-30T13:32:36.703Z,3.00
2019-04-30T13:35:09.104Z,3.08
2019-04-30T13:37:38.917Z,3.22
2019-04-30T13:40:09.820Z,3.33
2019-04-30T13:42:39.018Z,3.20
2019-04-30T13:45:08.507Z,3.27
2019-04-30T13:47:39.021Z,3.10
2019-04-30T13:50:09.353Z,2.72
2019-04-30T13:52:38.918Z,2.90
2019-04-30T13:55:10.694Z,2.85
2019-04-30T13:57:38.774Z,2.77
2019-04-30T14:00:12.712Z,2.83
2019-04-30T14:02:41.315Z,2.52
2019-04-30T14:05:10.517Z,2.62
2019-04-30T14:07:40.240Z,2.70
2019-04-30T14:10:10.232Z,2.47
2019-04-30T14:12:38.953Z,2.27
2019-04-30T14:15:09.350Z,2.40
2019-04-30T14:17:39.993Z,2.75
2019-04-30T14:20:08.926Z,2.20
2019-04-30T14:22:37.597Z,2.30
2019-04-30T14:25:08.191Z,2.20
2019-04-30T14:27:48.544Z,3.02
2019-04-30T14:30:09.304Z,2.30
2019-04-30T14:32:39.642Z,2.08
2019-04-30T14:35:09.132Z,2.22
2019-04-30T14:37:38.946Z,2.60
2019-04-30T14:40:12.210Z,2.12
2019-04-30T14:42:39.556Z,2.30
2019-04-30T14:45:09.412Z,2.40
2019-04-30T14:47:40.891Z,1.70
2019-04-30T14:50:09.924Z,2.00
2019-04-30T14:52:40.307Z,2.00
2019-04-30T14:55:09.848Z,1.80
2019-04-30T14:57:38.466Z,2.00
2019-04-30T15:00:08.739Z,1.85
2019-04-30T15:02:37.515Z,1.90
2019-04-30T15:05:09.005Z,2.10
2019-04-30T15:07:39.562Z,1.82
2019-04-30T15:10:08.530Z,1.55
2019-04-30T15:12:37.260Z,1.87
2019-04-30T15:15:09.044Z,1.60
2019-04-30T15:17:39.223Z,1.98
2019-04-30T15:20:08.811Z,1.77
2019-04-30T15:22:38.925Z,1.82
2019-04-30T15:25:07.888Z,1.80
2019-04-30T15:27:45.084Z,2.10
2019-04-30T15:30:08.279Z,1.72
2019-04-30T15:32:36.935Z,1.72
2019-04-30T15:35:08.746Z,1.80
2019-04-30T15:37:38.547Z,1.90
2019-04-30T15:40:09.097Z,1.92
2019-04-30T15:42:38.147Z,1.90
2019-04-30T15:45:09.185Z,1.67
2019-04-30T15:47:38.729Z,1.90
2019-04-30T15:50:09.782Z,1.82
2019-04-30T15:52:38.745Z,1.95
2019-04-30T15:55:09.212Z,2.00
2019-04-30T15:57:39.288Z,2.12
2019-04-30T16:00:08.686Z,2.17
2019-04-30T16:02:38.798Z,2.02
2019-04-30T16:05:07.766Z,2.20
2019-04-30T16:07:36.374Z,2.08
2019-04-30T16:10:08.887Z,2.08
2019-04-30T16:12:38.560Z,2.00
2019-04-30T16:15:09.912Z,1.95
2019-04-30T16:17:39.132Z,1.80
2019-04-30T16:20:08.308Z,2.00
2019-04-30T16:22:36.961Z,2.02
2019-04-30T16:25:08.500Z,2.20
2019-04-30T16:27:36.831Z,1.62
2019-04-30T16:30:06.697Z,1.92
2019-04-30T16:32:35.308Z,1.92
2019-04-30T16:35:06.356Z,1.75
2019-04-30T16:37:34.967Z,2.10
2019-04-30T16:40:04.533Z,1.70
2019-04-30T16:42:33.143Z,1.62
2019-04-30T16:45:01.955Z,1.75
2019-04-30T16:47:30.656Z,1.82
2019-04-30T16:49:59.290Z,1.55
2019-04-30T16:52:29.443Z,1.80
2019-04-30T16:54:58.203Z,2.33
2019-04-30T16:57:30.110Z,2.20
2019-04-30T16:59:59.262Z,2.00
2019-04-30T17:02:29.306Z,1.87
2019-04-30T17:04:58.098Z,1.80
2019-04-30T17:07:28.747Z,2.40
2019-04-30T17:09:59.095Z,1.98
2019-04-30T17:12:29.314Z,1.87
2019-04-30T17:14:58.677Z,1.90
2019-04-30T17:17:30.175Z,2.47
2019-04-30T17:19:57.785Z,2.50
2019-04-30T17:22:26.437Z,3.17
2019-04-30T17:24:55.049Z,2.67
2019-04-30T17:27:23.706Z,3.67
2019-04-30T17:29:52.320Z,3.33
2019-04-30T17:32:20.972Z,4.20
2019-04-30T17:34:49.660Z,2.25
2019-04-30T17:37:18.984Z,2.65
2019-04-30T17:39:49.462Z,2.77
2019-04-30T17:42:18.219Z,4.42
2019-04-30T17:44:56.094Z,3.20
2019-04-30T17:47:18.931Z,2.55
2019-04-30T17:49:48.393Z,2.55
2019-04-30T17:52:18.834Z,3.67
2019-04-30T17:54:49.225Z,3.77
2019-04-30T17:57:29.765Z,3.55
2019-04-30T17:59:48.893Z,4.30
2019-04-30T18:02:19.457Z,4.92
2019-04-30T18:04:48.345Z,3.70
2019-04-30T18:07:16.956Z,3.35
2019-04-30T18:09:45.615Z,2.45
2019-04-30T18:12:14.273Z,2.70
2019-04-30T18:14:42.880Z,3.87
2019-04-30T18:17:11.640Z,2.90
2019-04-30T18:19:40.251Z,2.22
2019-04-30T18:22:09.502Z,2.20
2019-04-30T18:24:39.383Z,1.92
2019-04-30T18:27:08.214Z,2.02
2019-04-30T18:29:36.822Z,2.10
2019-04-30T18:32:05.475Z,2.08
2019-04-30T18:34:34.141Z,2.30
2019-04-30T18:37:02.925Z,2.62
2019-04-30T18:39:31.583Z,2.40
2019-04-30T18:42:00.246Z,2.30
2019-04-30T18:44:29.544Z,2.40
2019-04-30T18:46:59.070Z,2.60
2019-04-30T18:49:28.705Z,2.58
2019-04-30T18:51:59.030Z,2.60
2019-04-30T18:54:28.944Z,3.25
2019-04-30T18:56:58.959Z,2.67
2019-04-30T18:59:27.688Z,3.00
2019-04-30T19:01:56.347Z,3.00
2019-04-30T19:04:25.025Z,2.87
2019-04-30T19:06:53.691Z,2.90
2019-04-30T19:09:22.351Z,2.72
2019-04-30T19:11:51.032Z,2.80
2019-04-30T19:14:19.637Z,3.02
2019-04-30T19:16:49.552Z,2.72
2019-04-30T19:19:19.569Z,2.80
2019-04-30T19:21:48.669Z,3.10
2019-04-30T19:24:17.420Z,3.02
2019-04-30T19:26:48.592Z,2.90
2019-04-30T19:29:17.117Z,3.12
2019-04-30T19:31:45.781Z,2.85
2019-04-30T19:34:14.433Z,2.45
2019-04-30T19:36:43.114Z,2.58
2019-04-30T19:39:11.951Z,2.60
2019-04-30T19:41:40.607Z,2.50
2019-04-30T19:44:09.225Z,2.40
2019-04-30T19:46:37.960Z,2.40
2019-04-30T19:49:06.571Z,2.55
2019-04-30T19:51:35.230Z,2.50
2019-04-30T19:54:04.279Z,2.30
2019-04-30T19:56:33.067Z,2.60
2019-04-30T19:59:05.145Z,2.42
2019-04-30T20:01:32.134Z,2.50
2019-04-30T20:04:00.790Z,2.98
2019-04-30T20:06:29.448Z,2.67
2019-04-30T20:08:59.043Z,2.58
2019-04-30T20:11:28.446Z,2.85
2019-04-30T20:13:57.145Z,2.80
2019-04-30T20:16:25.756Z,2.87
2019-04-30T20:18:54.437Z,2.98
2019-04-30T20:21:28.537Z,2.87
2019-04-30T20:23:53.454Z,3.00
2019-04-30T20:26:22.113Z,3.12
2019-04-30T20:28:50.770Z,3.10
2019-04-30T20:31:19.427Z,3.02
2019-04-30T20:33:48.928Z,3.05
2019-04-30T20:36:19.002Z,3.20
2019-04-30T20:38:47.901Z,3.15
2019-04-30T20:41:18.586Z,3.42
2019-04-30T20:43:46.904Z,3.00
2019-04-30T20:46:15.554Z,3.40
2019-04-30T20:48:44.205Z,3.77
2019-04-30T20:51:12.968Z,3.60
2019-04-30T20:53:41.627Z,2.98
2019-04-30T20:56:10.249Z,2.80
2019-04-30T20:58:54.166Z,3.12
2019-04-30T21:01:09.697Z,2.95
2019-04-30T21:03:39.590Z,2.92
2019-04-30T21:06:08.857Z,3.25
2019-04-30T21:08:37.752Z,3.27
2019-04-30T21:11:06.364Z,2.98
2019-04-30T21:13:35.023Z,2.75
2019-04-30T21:16:03.856Z,2.65
2019-04-30T21:18:32.653Z,3.08
2019-04-30T21:21:01.503Z,3.17
2019-04-30T21:23:30.111Z,2.77
2019-04-30T21:25:59.048Z,2.67
2019-04-30T21:28:29.643Z,2.83
2019-04-30T21:30:58.218Z,2.65
2019-04-30T21:33:26.877Z,2.95
2019-04-30T21:35:55.565Z,2.70
2019-04-30T21:38:24.359Z,2.80
2019-04-30T21:40:52.965Z,2.70
2019-04-30T21:43:21.618Z,2.17
2019-04-30T21:45:50.283Z,2.30
2019-04-30T21:48:19.267Z,2.30
2019-04-30T21:50:49.764Z,2.37
2019-04-30T21:53:19.549Z,2.35
2019-04-30T21:55:49.692Z,2.33
2019-04-30T21:58:20.492Z,2.77
2019-04-30T22:00:53.291Z,2.50
2019-04-30T22:03:21.902Z,2.40
2019-04-30T22:05:50.569Z,2.62
2019-04-30T22:08:19.181Z,2.58
2019-04-30T22:10:47.789Z,2.37
2019-04-30T22:13:18.404Z,2.45
2019-04-30T22:15:46.834Z,2.42
2019-04-30T22:18:15.447Z,2.00
2019-04-30T22:20:44.104Z,2.25
2019-04-30T22:23:12.714Z,2.10
2019-04-30T22:25:41.384Z,2.00
2019-04-30T22:28:10.034Z,1.82
2019-04-30T22:30:38.706Z,2.20
2019-04-30T22:33:08.894Z,2.10
2019-04-30T22:35:37.712Z,1.98
2019-04-30T22:38:06.317Z,2.12
2019-04-30T22:40:34.927Z,2.08
2019-04-30T22:43:03.712Z,2.10
2019-04-30T22:45:32.374Z,2.02
2019-04-30T22:48:00.984Z,2.00
2019-04-30T22:50:29.647Z,2.05
2019-04-30T22:52:58.260Z,2.08
2019-04-30T22:55:26.927Z,2.15
2019-04-30T22:57:55.537Z,1.77
2019-04-30T23:00:24.440Z,2.10
2019-04-30T23:02:53.094Z,2.22
2019-04-30T23:05:21.712Z,2.80
2019-04-30T23:07:50.473Z,2.50
2019-04-30T23:10:19.223Z,2.40
2019-04-30T23:12:47.889Z,2.10
2019-04-30T23:15:18.482Z,2.17
2019-04-30T23:17:47.144Z,2.17
2019-04-30T23:20:15.830Z,2.00
2019-04-30T23:22:44.538Z,2.15
2019-04-30T23:25:13.354Z,2.05
2019-04-30T23:27:42.016Z,2.20
2019-04-30T23:30:11.728Z,2.00
2019-04-30T23:32:40.341Z,2.20
2019-04-30T23:35:09.186Z,1.98
2019-04-30T23:37:37.846Z,2.00
2019-04-30T23:40:22.479Z,1.80
2019-04-30T23:42:53.381Z,1.77
2019-04-30T23:45:22.349Z,1.90
2019-04-30T23:47:50.961Z,1.77
2019-04-30T23:50:19.685Z,1.80
2019-04-30T23:52:48.307Z,1.72
2019-04-30T23:55:17.028Z,1.65
2019-04-30T23:57:45.640Z,1.87
